Time;durP1;ratioP1;P1;durP2;ratioP2;P2;SDS_P1;SDS_P2;PMS_P1;PMS_P2;Temp;Humidity;BMP_temperature;BMP_pressure;BME280_temperature;BME280_humidity;BME280_pressure;Samples;Min_cycle;Max_cycle;Signal;HPM_P1;HPM_P2
2022/03/19 00:00:06;;;;;;;33.40;18.80;;;;;;;-0.41;55.64;103281.19;1731460;82;21009;-75
2022/03/19 00:02:37;;;;;;;31.87;18.93;;;;;;;-0.45;55.69;103274.95;1730750;82;21012;-75
2022/03/19 00:05:08;;;;;;;32.93;19.13;;;;;;;-0.47;55.57;103284.32;1731803;82;21083;-76
2022/03/19 00:07:40;;;;;;;31.67;16.90;;;;;;;-0.49;55.85;103278.59;1731576;82;21027;-76
2022/03/19 00:10:09;;;;;;;33.97;19.10;;;;;;;-0.40;56.78;103271.76;1731559;82;21954;-74
2022/03/19 00:12:41;;;;;;;31.15;17.85;;;;;;;-0.30;57.17;103276.62;1731646;82;21530;-77
2022/03/19 00:15:10;;;;;;;33.70;21.40;;;;;;;-0.17;57.24;103276.44;1731524;82;21497;-76
2022/03/19 00:17:39;;;;;;;32.03;18.50;;;;;;;-0.08;57.31;103270.91;1731643;82;20981;-74
2022/03/19 00:20:07;;;;;;;33.50;18.57;;;;;;;0.03;57.39;103275.31;1731605;82;21583;-76
2022/03/19 00:22:34;;;;;;;33.03;19.37;;;;;;;0.08;57.46;103270.87;1731525;82;21151;-77
2022/03/19 00:25:01;;;;;;;30.90;18.23;;;;;;;0.17;57.53;103274.37;1731878;82;20996;-76
2022/03/19 00:27:28;;;;;;;36.50;19.40;;;;;;;0.22;57.57;103274.17;1731523;82;20981;-75
2022/03/19 00:29:55;;;;;;;40.73;20.00;;;;;;;0.30;57.58;103275.86;1731815;82;21008;-76
2022/03/19 00:32:22;;;;;;;36.77;20.20;;;;;;;0.35;57.69;103273.12;1731526;82;21477;-75
2022/03/19 00:34:49;;;;;;;36.03;20.83;;;;;;;0.42;57.65;103270.94;1731775;82;21152;-76
2022/03/19 00:37:17;;;;;;;38.17;19.77;;;;;;;0.48;57.43;103269.07;1731767;82;21036;-76
2022/03/19 00:39:44;;;;;;;35.17;19.43;;;;;;;0.55;57.50;103263.80;1731772;82;21020;-76
2022/03/19 00:42:12;;;;;;;43.80;20.90;;;;;;;0.61;57.35;103268.88;1731616;82;21490;-76
2022/03/19 00:44:39;;;;;;;38.10;20.13;;;;;;;0.67;57.19;103272.17;1731793;82;20984;-75
2022/03/19 00:47:06;;;;;;;37.53;20.90;;;;;;;0.73;56.74;103268.59;1731670;82;21126;-76
2022/03/19 00:49:33;;;;;;;37.30;20.40;;;;;;;0.81;56.58;103267.28;1732376;82;21001;-76
2022/03/19 00:52:01;;;;;;;39.73;22.33;;;;;;;0.93;55.39;103266.98;1734115;82;21498;-76
2022/03/19 00:54:28;;;;;;;36.17;20.43;;;;;;;1.03;55.85;103267.92;1734205;82;21485;-75
2022/03/19 00:56:55;;;;;;;38.47;20.03;;;;;;;1.10;56.01;103263.50;1734408;82;21279;-77
2022/03/19 00:59:22;;;;;;;34.40;19.30;;;;;;;1.16;55.92;103266.78;1734148;82;21958;-76
2022/03/19 01:01:49;;;;;;;38.30;20.03;;;;;;;1.23;55.62;103257.23;1734328;82;20992;-76
2022/03/19 01:04:16;;;;;;;38.23;21.73;;;;;;;1.30;55.64;103263.56;1734219;82;21028;-76
2022/03/19 01:06:44;;;;;;;43.17;22.97;;;;;;;1.37;54.88;103255.30;1734462;82;21056;-76
2022/03/19 01:09:11;;;;;;;39.63;22.10;;;;;;;1.47;53.86;103250.13;1734259;82;21971;-76
2022/03/19 01:11:39;;;;;;;44.00;23.13;;;;;;;1.56;53.52;103245.41;1734814;82;21902;-77
2022/03/19 01:14:06;;;;;;;40.33;23.30;;;;;;;1.63;52.89;103248.72;1734035;82;21447;-76
2022/03/19 01:16:33;;;;;;;48.13;24.70;;;;;;;1.68;52.76;103242.48;1734438;82;21457;-76
2022/03/19 01:19:01;;;;;;;46.47;25.23;;;;;;;1.73;52.27;103241.88;1734115;82;21514;-76
2022/03/19 01:21:28;;;;;;;47.93;25.17;;;;;;;1.76;52.05;103243.30;1734213;82;21023;-76
2022/03/19 01:23:55;;;;;;;54.30;27.77;;;;;;;1.78;51.79;103239.09;1734062;82;21538;-76
2022/03/19 01:26:22;;;;;;;46.60;26.60;;;;;;;1.79;51.37;103242.55;1734364;82;21012;-76
2022/03/19 01:28:49;;;;;;;46.33;26.03;;;;;;;1.76;50.98;103238.12;1734204;82;20981;-75
2022/03/19 01:31:19;;;;;;;47.20;26.40;;;;;;;1.73;50.79;103238.41;1734521;82;21530;-76
2022/03/19 01:33:46;;;;;;;53.10;28.87;;;;;;;1.71;50.75;103236.15;1734233;82;21077;-76
2022/03/19 01:36:13;;;;;;;50.43;26.93;;;;;;;1.71;50.58;103239.62;1734438;82;21055;-75
2022/03/19 01:38:41;;;;;;;55.80;27.07;;;;;;;1.71;50.57;103240.03;1734086;82;21027;-76
2022/03/19 01:41:08;;;;;;;49.33;27.47;;;;;;;1.73;50.45;103237.99;1734323;82;21489;-76
2022/03/19 01:43:39;;;;;;;51.80;26.90;;;;;;;1.72;50.20;103227.19;1734449;82;21012;-76
2022/03/19 01:46:09;;;;;;;54.80;27.58;;;;;;;1.71;50.13;103233.16;1734354;82;21024;-76
2022/03/19 01:48:36;;;;;;;50.40;28.30;;;;;;;1.71;50.18;103230.56;1734460;82;21153;-76
2022/03/19 01:51:04;;;;;;;49.37;28.80;;;;;;;1.69;50.09;103224.84;1734046;82;21004;-73
2022/03/19 01:53:31;;;;;;;48.73;27.17;;;;;;;1.69;50.04;103228.72;1734146;82;21470;-76
2022/03/19 01:55:59;;;;;;;49.23;26.17;;;;;;;1.60;50.26;103221.86;1734431;82;21032;-76
2022/03/19 01:58:26;;;;;;;49.80;25.93;;;;;;;1.46;50.48;103218.64;1734199;82;21486;-76
2022/03/19 02:00:54;;;;;;;45.60;25.87;;;;;;;1.34;50.69;103218.98;1734421;82;21072;-75
2022/03/19 02:03:23;;;;;;;47.63;26.07;;;;;;;1.23;50.94;103209.44;1734018;82;20969;-76
2022/03/19 02:05:50;;;;;;;50.23;26.50;;;;;;;1.10;51.10;103216.13;1734460;82;21449;-77
2022/03/19 02:08:20;;;;;;;53.70;27.00;;;;;;;1.04;51.57;103221.89;1734164;82;21008;-76
2022/03/19 02:10:47;;;;;;;54.67;27.77;;;;;;;0.98;52.01;103221.61;1734478;82;27317;-75
2022/03/19 02:13:14;;;;;;;53.20;28.30;;;;;;;0.98;52.01;103219.44;1734014;82;21973;-75
2022/03/19 02:15:42;;;;;;;51.07;27.50;;;;;;;1.02;51.94;103217.46;1734177;82;21008;-76
2022/03/19 02:18:09;;;;;;;55.13;29.70;;;;;;;1.08;52.41;103217.36;1733992;82;20973;-76
2022/03/19 02:20:37;;;;;;;54.37;29.57;;;;;;;1.14;52.73;103215.48;1733899;82;21039;-75
2022/03/19 02:25:50;;;;;;;54.50;29.20;;;;;;;1.20;52.15;103222.22;1734066;82;21195;-74
2022/03/19 02:28:18;;;;;;;53.83;28.97;;;;;;;1.24;51.64;103220.65;1734247;82;21032;-75
2022/03/19 02:30:45;;;;;;;56.27;28.93;;;;;;;1.27;51.30;103224.66;1734160;82;21024;-75
2022/03/19 02:33:13;;;;;;;54.93;29.30;;;;;;;1.30;51.08;103218.34;1734138;82;21008;-75
2022/03/19 02:35:40;;;;;;;51.60;28.10;;;;;;;1.32;50.98;103224.48;1734861;82;21083;-75
2022/03/19 02:38:09;;;;;;;56.00;28.33;;;;;;;1.34;50.89;103226.73;1734061;82;21362;-75
2022/03/19 02:40:36;;;;;;;50.90;27.30;;;;;;;1.34;50.92;103228.02;1734337;82;20924;-74
2022/03/19 02:43:03;;;;;;;56.57;29.90;;;;;;;1.36;50.79;103224.20;1734159;82;20992;-75
2022/03/19 02:45:31;;;;;;;55.83;30.17;;;;;;;1.34;50.51;103218.98;1734355;82;21004;-75
2022/03/19 02:47:57;;;;;;;53.30;29.67;;;;;;;1.27;50.30;103212.63;1734062;82;21015;-75
2022/03/19 02:50:35;;;;;;;52.10;28.03;;;;;;;1.25;50.30;103212.10;1733329;82;21116;-75
2022/03/19 02:53:06;;;;;;;57.00;29.57;;;;;;;1.26;50.31;103206.98;1730901;82;21012;-75
2022/03/19 02:55:37;;;;;;;54.47;28.60;;;;;;;1.27;50.46;103208.75;1731716;82;21020;-75
2022/03/19 02:58:06;;;;;;;57.87;30.37;;;;;;;1.26;50.46;103212.16;1731692;82;21012;-75
2022/03/19 03:00:34;;;;;;;56.93;29.93;;;;;;;1.27;50.40;103207.87;1731684;82;21040;-75
2022/03/19 03:03:04;;;;;;;57.57;30.00;;;;;;;1.30;50.21;103210.21;1731623;82;22192;-76
2022/03/19 03:05:31;;;;;;;59.23;32.07;;;;;;;1.26;50.17;103205.70;1731482;82;20997;-75
2022/03/19 03:07:58;;;;;;;56.17;31.67;;;;;;;1.24;49.97;103202.56;1731727;82;21004;-75
2022/03/19 03:10:26;;;;;;;61.70;32.33;;;;;;;1.19;49.93;103202.75;1731684;82;20973;-75
2022/03/19 03:12:53;;;;;;;55.03;30.90;;;;;;;1.16;49.86;103197.45;1731600;82;21032;-75
2022/03/19 03:15:20;;;;;;;59.57;31.27;;;;;;;1.13;49.82;103200.77;1731662;82;21124;-75
2022/03/19 03:17:48;;;;;;;58.67;30.07;;;;;;;1.10;49.92;103201.51;1731459;82;21004;-75
2022/03/19 03:20:16;;;;;;;59.93;30.60;;;;;;;1.10;50.02;103198.05;1731667;82;21071;-75
2022/03/19 03:22:44;;;;;;;61.77;31.63;;;;;;;1.11;50.10;103194.25;1731663;82;21497;-75
2022/03/19 03:25:11;;;;;;;56.63;29.17;;;;;;;1.09;50.08;103199.75;1731576;82;21044;-75
2022/03/19 03:27:39;;;;;;;58.63;30.10;;;;;;;1.08;50.45;103203.16;1731734;82;21754;-74
2022/03/19 03:30:08;;;;;;;57.67;29.53;;;;;;;1.00;50.55;103198.41;1731571;82;21071;-75
2022/03/19 03:32:35;;;;;;;57.90;29.63;;;;;;;0.90;50.27;103202.28;1731576;82;21056;-74
2022/03/19 03:35:03;;;;;;;57.00;29.50;;;;;;;0.86;50.56;103196.09;1731579;82;21029;-75
2022/03/19 03:37:30;;;;;;;55.13;28.60;;;;;;;0.80;50.48;103189.73;1731609;82;21023;-75
2022/03/19 03:39:57;;;;;;;51.47;28.20;;;;;;;0.71;50.78;103186.30;1731568;82;21212;-75
2022/03/19 03:42:26;;;;;;;57.13;28.60;;;;;;;0.57;51.01;103186.05;1731466;82;21016;-75
2022/03/19 03:44:58;;;;;;;58.70;28.93;;;;;;;0.44;51.23;103182.88;1731905;82;21485;-75
2022/03/19 03:47:22;;;;;;;56.60;29.63;;;;;;;0.30;51.45;103184.28;1731402;82;20992;-75
2022/03/19 03:49:49;;;;;;;58.03;29.70;;;;;;;0.15;51.60;103189.16;1731786;82;21094;-75
2022/03/19 03:52:17;;;;;;;55.97;29.23;;;;;;;0.07;52.00;103184.42;1731560;82;21490;-75
2022/03/19 03:54:45;;;;;;;53.70;29.87;;;;;;;-0.03;52.17;103186.92;1731726;82;21065;-74
2022/03/19 03:57:12;;;;;;;54.53;28.47;;;;;;;-0.10;52.47;103188.31;1731566;82;21016;-75
2022/03/19 03:59:40;;;;;;;60.33;29.63;;;;;;;-0.19;52.44;103193.00;1731907;82;21004;-75
2022/03/19 04:02:07;;;;;;;53.80;28.23;;;;;;;-0.31;52.47;103189.36;1731611;82;21072;-75
2022/03/19 04:04:34;;;;;;;53.67;28.77;;;;;;;-0.40;52.78;103185.44;1731881;82;21259;-75
2022/03/19 04:07:01;;;;;;;52.97;28.77;;;;;;;-0.53;53.07;103183.89;1731523;82;20985;-75
2022/03/19 04:09:28;;;;;;;50.90;28.30;;;;;;;-0.61;53.42;103185.17;1731911;82;21004;-74
2022/03/19 04:11:55;;;;;;;52.27;28.57;;;;;;;-0.72;53.64;103184.21;1731536;82;21244;-75
2022/03/19 04:14:22;;;;;;;50.10;27.33;;;;;;;-0.79;53.80;103180.81;1731899;82;21075;-75
2022/03/19 04:16:49;;;;;;;51.80;28.43;;;;;;;-0.85;54.10;103175.74;1731527;82;21155;-74
2022/03/19 04:19:17;;;;;;;50.03;28.20;;;;;;;-0.90;54.32;103175.48;1731751;82;20920;-74
2022/03/19 04:21:44;;;;;;;52.17;28.53;;;;;;;-0.88;54.35;103167.85;1731542;82;21500;-72
2022/03/19 04:24:11;;;;;;;58.53;29.80;;;;;;;-0.92;54.50;103174.50;1731826;82;20993;-75
2022/03/19 04:26:40;;;;;;;59.00;29.83;;;;;;;-0.97;54.68;103169.13;1731581;82;21031;-75
2022/03/19 04:29:08;;;;;;;57.87;28.87;;;;;;;-1.02;54.79;103169.27;1731804;82;21267;-74
2022/03/19 04:31:35;;;;;;;54.43;28.37;;;;;;;-1.07;54.74;103172.39;1731432;82;21414;-74
2022/03/19 04:34:03;;;;;;;53.10;28.77;;;;;;;-1.09;54.98;103174.87;1731539;82;21453;-75
2022/03/19 04:36:30;;;;;;;57.23;28.27;;;;;;;-1.15;54.99;103174.12;1731921;82;21016;-74
2022/03/19 04:39:02;;;;;;;55.80;28.93;;;;;;;-1.22;55.21;103164.31;1731906;82;21020;-74
2022/03/19 04:41:31;;;;;;;52.87;28.27;;;;;;;-1.26;55.42;103173.05;1719160;83;21135;-74
2022/03/19 04:43:58;;;;;;;47.03;26.47;;;;;;;-1.32;55.30;103173.59;1731750;82;21016;-75
2022/03/19 04:46:26;;;;;;;51.43;29.17;;;;;;;-1.39;55.51;103174.92;1731757;82;21471;-75
2022/03/19 04:48:53;;;;;;;53.60;28.23;;;;;;;-1.45;55.50;103181.02;1731621;82;21024;-75
2022/03/19 04:51:26;;;;;;;49.77;27.30;;;;;;;-1.47;55.62;103177.49;1731582;82;21059;-76
2022/03/19 04:53:54;;;;;;;56.73;26.97;;;;;;;-1.54;55.84;103180.91;1683530;84;21136;-75
2022/03/19 04:56:27;;;;;;;53.23;29.03;;;;;;;-1.63;55.95;103182.15;1676462;85;21494;-74
2022/03/19 04:58:56;;;;;;;55.57;28.17;;;;;;;-1.68;56.02;103184.85;1684158;85;20936;-74
2022/03/19 05:01:32;;;;;;;65.63;35.87;;;;;;;-1.69;56.53;103196.32;1676431;85;21020;-76
2022/03/19 05:04:01;;;;;;;66.37;35.83;;;;;;;-1.65;57.21;103194.02;1676122;85;21426;-73
2022/03/19 05:06:29;;;;;;;53.28;27.60;;;;;;;-1.56;57.36;103193.66;1666122;84;21145;-72
2022/03/19 05:11:31;;;;;;;59.70;28.63;;;;;;;-1.52;56.84;103204.63;1637198;85;21004;-73
2022/03/19 05:13:58;;;;;;;59.10;29.80;;;;;;;-1.60;56.69;103208.45;1649940;85;21030;-74
2022/03/19 05:16:25;;;;;;;52.93;30.27;;;;;;;-1.62;56.60;103206.17;1649004;87;20995;-73
2022/03/19 05:18:52;;;;;;;205.97;72.00;;;;;;;-1.59;56.62;103208.52;1648986;87;21138;-75
2022/03/19 05:21:19;;;;;;;178.13;63.47;;;;;;;-1.51;56.65;103215.80;1648933;87;21019;-75
2022/03/19 05:23:46;;;;;;;160.00;60.93;;;;;;;-1.46;56.74;103213.98;1649314;87;21492;-74
2022/03/19 05:26:13;;;;;;;139.60;53.30;;;;;;;-1.43;56.61;103219.70;1651698;85;21027;-74
2022/03/19 05:28:40;;;;;;;187.57;64.37;;;;;;;-1.43;56.71;103223.16;1673460;85;21044;-73
2022/03/19 05:31:09;;;;;;;181.90;64.07;;;;;;;-1.43;56.62;103228.70;1676107;85;21100;-73
2022/03/19 05:36:36;;;;;;;308.03;96.03;;;;;;;-1.30;56.94;103230.28;1833571;78;24846;-72
2022/03/19 05:39:04;;;;;;;162.32;56.75;;;;;;;-1.31;56.73;103235.83;1780350;80;21035;-74
2022/03/19 05:41:31;;;;;;;126.50;50.07;;;;;;;-1.27;56.71;103231.36;1790835;80;21130;-74
2022/03/19 05:43:58;;;;;;;392.13;135.20;;;;;;;-1.21;56.64;103232.11;1791334;80;21475;-75
2022/03/19 05:46:25;;;;;;;429.40;162.50;;;;;;;-1.16;56.63;103224.25;1790425;80;21040;-72
2022/03/19 05:48:53;;;;;;;328.93;122.60;;;;;;;-1.10;56.70;103222.02;1790314;80;21575;-72
2022/03/19 05:51:20;;;;;;;271.03;108.13;;;;;;;-1.06;56.57;103223.06;1789942;80;21629;-71
2022/03/19 05:53:47;;;;;;;117.93;59.67;;;;;;;-1.01;56.60;103229.36;1790768;80;21073;-75
2022/03/19 05:56:16;;;;;;;83.20;41.97;;;;;;;-0.97;56.45;103220.98;1788310;80;20888;-76
2022/03/19 05:58:43;;;;;;;74.20;37.67;;;;;;;-0.95;56.21;103224.55;1788621;80;21055;-75
2022/03/19 06:01:10;;;;;;;71.27;36.60;;;;;;;-0.94;56.11;103222.48;1785920;78;21012;-74
2022/03/19 06:03:37;;;;;;;76.73;36.37;;;;;;;-0.94;56.24;103227.63;1763749;80;21442;-75
2022/03/19 06:06:04;;;;;;;72.40;35.87;;;;;;;-0.95;56.34;103221.97;1771169;80;21110;-76
2022/03/19 06:08:31;;;;;;;69.93;38.23;;;;;;;-0.95;56.31;103228.00;1790972;80;21029;-75
2022/03/19 06:10:58;;;;;;;73.50;34.87;;;;;;;-0.93;56.51;103228.09;1790582;80;21474;-75
2022/03/19 06:13:26;;;;;;;71.53;35.47;;;;;;;-0.93;56.41;103226.81;1790850;80;20989;-73
2022/03/19 06:15:54;;;;;;;62.90;34.83;;;;;;;-0.91;56.40;103231.66;1795593;78;21000;-75
2022/03/19 06:18:21;;;;;;;64.90;34.57;;;;;;;-0.86;56.64;103237.03;1790808;80;21479;-75
2022/03/19 06:20:48;;;;;;;67.30;36.70;;;;;;;-0.80;56.54;103234.42;1799593;78;21490;-74
2022/03/19 06:23:15;;;;;;;70.23;37.73;;;;;;;-0.71;56.64;103241.76;1790142;80;20988;-75
2022/03/19 06:25:42;;;;;;;69.67;36.50;;;;;;;-0.62;56.76;103238.79;1804761;78;21079;-73
2022/03/19 06:28:09;;;;;;;67.77;36.27;;;;;;;-0.49;56.71;103233.09;1725854;81;21020;-75
2022/03/19 06:30:37;;;;;;;79.33;38.67;;;;;;;-0.37;56.73;103235.44;1726833;81;21483;-74
2022/03/19 06:33:05;;;;;;;78.43;38.50;;;;;;;-0.26;56.81;103236.01;1726411;81;21016;-73
2022/03/19 06:38:08;;;;;;;87.80;41.27;;;;;;;-0.02;56.62;103242.45;1669574;84;21019;-74
2022/03/19 06:40:36;;;;;;;218.43;82.93;;;;;;;0.11;56.50;103241.41;1696659;84;21117;-75
2022/03/19 06:43:03;;;;;;;97.10;45.60;;;;;;;0.22;56.31;103243.22;1727274;83;21121;-74
2022/03/19 06:45:30;;;;;;;79.23;41.60;;;;;;;0.33;56.23;103246.34;1707993;83;21070;-78
2022/03/19 06:47:57;;;;;;;86.43;41.93;;;;;;;0.42;56.13;103242.55;1708055;83;21509;-75
2022/03/19 06:50:24;;;;;;;116.83;54.00;;;;;;;0.54;55.99;103252.59;1715112;83;21043;-74
2022/03/19 06:52:51;;;;;;;82.17;41.30;;;;;;;0.63;56.00;103250.45;1683313;85;21054;-75
2022/03/19 06:55:18;;;;;;;82.73;41.80;;;;;;;0.71;56.05;103256.42;1675425;85;21767;-74
2022/03/19 06:57:44;;;;;;;82.33;42.83;;;;;;;0.77;55.89;103261.47;1700160;84;21031;-75
2022/03/19 07:00:13;;;;;;;118.63;55.27;;;;;;;0.81;55.71;103260.83;1683808;84;21022;-74
2022/03/19 07:02:51;;;;;;;76.87;40.53;;;;;;;0.86;55.91;103254.60;1675051;85;21023;-74
2022/03/19 07:05:26;;;;;;;67.13;38.53;;;;;;;0.96;56.05;103261.96;1700276;84;21035;-75
2022/03/19 07:07:55;;;;;;;84.87;42.73;;;;;;;1.05;55.88;103261.52;1664936;85;22038;-75
2022/03/19 07:10:22;;;;;;;111.42;53.92;;;;;;;1.14;55.82;103264.94;1680786;85;21051;-75
2022/03/19 07:12:52;;;;;;;98.03;49.53;;;;;;;1.20;55.68;103263.96;1680476;85;21019;-76
2022/03/19 07:15:24;;;;;;;94.28;46.10;;;;;;;1.25;55.56;103256.91;1680724;85;21306;-77
2022/03/19 07:17:51;;;;;;;96.40;44.23;;;;;;;1.30;55.31;103256.72;1680556;85;21007;-77
2022/03/19 07:20:18;;;;;;;93.27;47.67;;;;;;;1.37;55.15;103254.42;1680386;85;21966;-76
2022/03/19 07:22:58;;;;;;;114.70;53.67;;;;;;;1.46;55.26;103258.30;1680611;85;21026;-76
2022/03/19 07:25:32;;;;;;;90.22;46.95;;;;;;;1.55;55.02;103259.12;1680492;85;22049;-77
2022/03/19 07:28:10;;;;;;;89.87;46.47;;;;;;;1.64;55.06;103259.56;1680692;85;21111;-77
2022/03/19 07:30:37;;;;;;;87.83;45.87;;;;;;;1.71;54.92;103257.72;1697160;84;21043;-77
2022/03/19 07:33:05;;;;;;;98.67;48.83;;;;;;;1.79;54.88;103256.77;1680788;85;21090;-77
2022/03/19 07:35:32;;;;;;;81.93;43.20;;;;;;;1.89;54.77;103262.84;1699965;84;21013;-73
2022/03/19 07:38:00;;;;;;;73.07;39.63;;;;;;;1.95;54.75;103260.94;1713553;82;21074;-74
2022/03/19 07:43:14;;;;;;;70.10;39.70;;;;;;;2.19;54.79;103262.02;1734824;82;21011;-74
2022/03/19 07:45:42;;;;;;;71.43;38.57;;;;;;;2.29;54.44;103260.69;1734714;82;21131;-74
2022/03/19 07:48:10;;;;;;;66.93;38.00;;;;;;;2.36;54.25;103264.03;1734637;82;21011;-74
2022/03/19 07:50:38;;;;;;;71.20;39.47;;;;;;;2.46;54.25;103264.00;1734748;82;21011;-74
2022/03/19 07:53:07;;;;;;;70.00;39.27;;;;;;;2.60;54.13;103265.88;1735003;82;21035;-73
2022/03/19 07:55:35;;;;;;;71.57;40.60;;;;;;;2.71;54.28;103269.79;1734682;82;21568;-74
2022/03/19 07:58:04;;;;;;;68.37;38.83;;;;;;;2.87;54.19;103263.54;1734911;82;21142;-74
2022/03/19 08:00:31;;;;;;;69.50;38.80;;;;;;;3.00;53.96;103264.93;1734536;82;21698;-74
2022/03/19 08:02:59;;;;;;;63.37;38.40;;;;;;;3.19;53.97;103267.43;1734645;82;21536;-75
2022/03/19 08:05:26;;;;;;;64.13;37.40;;;;;;;3.31;53.49;103258.82;1734651;82;21516;-75
2022/03/19 08:07:53;;;;;;;64.50;37.50;;;;;;;3.42;53.30;103260.95;1734866;82;21496;-84
2022/03/19 08:10:20;;;;;;;67.47;39.20;;;;;;;3.48;53.01;103263.77;1734680;82;22115;-74
2022/03/19 08:12:49;;;;;;;66.63;37.60;;;;;;;3.53;52.99;103264.84;1752453;81;21507;-73
2022/03/19 08:15:17;;;;;;;70.50;39.97;;;;;;;3.56;52.78;103265.83;1734652;82;21082;-74
2022/03/19 08:17:44;;;;;;;65.77;38.13;;;;;;;3.57;52.55;103268.91;1734648;82;21028;-74
2022/03/19 08:20:15;;;;;;;62.80;37.10;;;;;;;3.63;52.61;103263.45;1738446;81;21032;-74
2022/03/19 08:22:41;;;;;;;76.17;41.87;;;;;;;3.79;52.71;103263.20;1767577;79;21102;-75
2022/03/19 08:25:09;;;;;;;62.83;36.80;;;;;;;3.95;52.34;103260.77;1760087;81;21012;-73
2022/03/19 08:27:36;;;;;;;59.07;34.47;;;;;;;4.09;52.21;103259.96;1756445;79;21083;-73
2022/03/19 08:30:03;;;;;;;58.37;34.87;;;;;;;4.25;52.08;103261.84;1764222;81;21036;-74
2022/03/19 08:32:31;;;;;;;47.13;31.43;;;;;;;4.45;51.99;103268.14;1764842;81;21054;-74
2022/03/19 08:34:58;;;;;;;49.67;30.70;;;;;;;4.66;51.80;103266.28;1765061;81;21938;-75
2022/03/19 08:37:26;;;;;;;49.30;29.07;;;;;;;4.88;51.41;103261.80;1764367;81;20984;-75
2022/03/19 08:42:40;;;;;;;50.87;29.67;;;;;;;5.16;50.56;103257.47;1765133;81;21016;-75
2022/03/19 08:45:08;;;;;;;54.30;30.43;;;;;;;5.27;50.07;103256.08;1765186;81;20997;-75
2022/03/19 08:47:35;;;;;;;49.70;29.90;;;;;;;5.34;49.75;103254.11;1765137;81;21932;-75
2022/03/19 08:50:03;;;;;;;50.80;29.30;;;;;;;5.47;49.85;103258.86;1765082;81;21007;-76
2022/03/19 08:52:31;;;;;;;48.13;26.53;;;;;;;5.65;49.76;103257.20;1764956;81;21171;-75
2022/03/19 08:55:01;;;;;;;30.60;19.30;;;;;;;5.86;49.26;103257.37;1765312;81;21001;-77
2022/03/19 08:57:28;;;;;;;32.00;19.37;;;;;;;6.14;48.55;103252.53;1765023;81;21026;-76
2022/03/19 08:59:55;;;;;;;32.37;19.77;;;;;;;6.49;48.28;103254.77;1764200;81;21149;-76
2022/03/19 09:02:22;;;;;;;35.03;21.43;;;;;;;6.81;47.62;103243.82;1763713;80;20987;-76
2022/03/19 09:04:49;;;;;;;33.57;20.87;;;;;;;7.13;47.06;103246.32;1765256;80;20980;-77
2022/03/19 09:07:16;;;;;;;34.47;20.83;;;;;;;7.37;46.64;103241.66;1765235;81;21007;-78
2022/03/19 09:09:44;;;;;;;38.57;20.80;;;;;;;7.60;46.15;103236.91;1765296;81;21491;-76
2022/03/19 09:12:11;;;;;;;36.03;20.00;;;;;;;7.80;45.72;103236.44;1764725;81;21104;-77
2022/03/19 09:14:38;;;;;;;28.97;18.10;;;;;;;7.99;45.25;103228.11;1764927;81;21008;-76
2022/03/19 09:17:05;;;;;;;28.30;17.70;;;;;;;8.20;44.87;103237.19;1765088;81;20973;-76
2022/03/19 09:19:35;;;;;;;24.63;16.33;;;;;;;8.34;44.26;103229.59;1765384;81;21011;-77
2022/03/19 09:22:03;;;;;;;23.20;15.00;;;;;;;8.50;43.95;103231.66;1765476;81;20988;-76
2022/03/19 09:24:31;;;;;;;26.57;14.97;;;;;;;8.65;43.46;103225.38;1765267;81;21167;-77
2022/03/19 09:26:58;;;;;;;23.53;14.23;;;;;;;8.83;43.17;103223.47;1762733;79;21031;-76
2022/03/19 09:29:26;;;;;;;24.27;15.67;;;;;;;9.04;42.84;103220.31;1765076;80;21059;-75
2022/03/19 09:31:54;;;;;;;20.93;14.30;;;;;;;9.18;42.18;103217.02;1765380;80;21033;-76
2022/03/19 09:34:22;;;;;;;25.17;13.83;;;;;;;9.22;41.59;103217.49;1765058;81;21295;-74
2022/03/19 09:36:50;;;;;;;21.77;14.47;;;;;;;9.31;41.27;103226.36;1764969;80;21067;-76
2022/03/19 09:39:17;;;;;;;19.00;13.83;;;;;;;9.38;41.03;103226.00;1764916;79;20985;-76
2022/03/19 09:41:45;;;;;;;20.07;14.40;;;;;;;9.47;40.60;103222.18;1765024;81;21008;-79
2022/03/19 09:44:13;;;;;;;23.37;15.20;;;;;;;9.62;40.34;103226.75;1765202;81;21051;-77
2022/03/19 09:46:43;;;;;;;21.10;14.90;;;;;;;9.65;39.97;103223.30;1752488;81;20968;-80
2022/03/19 09:49:11;;;;;;;22.17;15.45;;;;;;;9.76;39.83;103224.30;1734806;82;21904;-76
2022/03/19 09:51:44;;;;;;;22.93;14.60;;;;;;;9.91;39.48;103224.45;1734581;82;21008;-76
2022/03/19 09:54:09;;;;;;;18.57;13.73;;;;;;;10.04;39.27;103218.92;1735337;79;21010;-76
2022/03/19 09:56:38;;;;;;;21.07;13.30;;;;;;;10.13;38.94;103220.75;1737077;81;21015;-76
2022/03/19 09:59:06;;;;;;;22.87;13.03;;;;;;;10.23;38.50;103221.30;1765056;81;21004;-76
2022/03/19 10:01:35;;;;;;;16.70;12.60;;;;;;;10.34;38.37;103213.13;1765011;81;21193;-76
2022/03/19 10:04:12;;;;;;;17.93;12.10;;;;;;;10.44;37.73;103202.27;1748668;81;21043;-75
2022/03/19 10:09:47;;;;;;;16.07;12.00;;;;;;;10.63;36.73;103211.17;1765040;81;21556;-75
2022/03/19 10:12:21;;;;;;;17.90;12.60;;;;;;;10.68;36.53;103211.66;1765035;81;21028;-75
2022/03/19 10:14:53;;;;;;;18.73;12.73;;;;;;;10.87;36.29;103199.98;1765026;81;21115;-76
2022/03/19 10:17:39;;;;;;;18.47;11.77;;;;;;;11.04;36.01;103209.27;1765073;81;21005;-76
2022/03/19 10:20:13;;;;;;;18.87;12.87;;;;;;;11.25;35.93;103205.46;1764969;81;21054;-75
2022/03/19 10:22:44;;;;;;;15.65;12.28;;;;;;;11.46;35.74;103208.60;1765218;80;21022;-76
2022/03/19 10:25:17;;;;;;;17.53;13.03;;;;;;;11.64;35.31;103213.48;1764479;80;20981;-76
2022/03/19 10:27:45;;;;;;;18.10;13.03;;;;;;;11.87;35.32;103218.86;1765385;80;21434;-76
2022/03/19 10:30:22;;;;;;;17.35;12.98;;;;;;;12.22;35.10;103211.01;1765181;80;20924;-77
2022/03/19 10:32:53;;;;;;;21.73;13.45;;;;;;;12.39;34.70;103211.05;1765424;81;20989;-76
2022/03/19 10:35:28;;;;;;;17.30;12.95;;;;;;;12.52;34.48;103212.78;1760436;79;21075;-76
2022/03/19 10:37:57;;;;;;;20.60;13.18;;;;;;;12.73;34.10;103212.78;1713414;82;21047;-79
2022/03/19 10:40:37;;;;;;;16.20;12.40;;;;;;;12.94;33.79;103202.66;1717123;82;21592;-74
2022/03/19 10:43:09;;;;;;;17.80;13.08;;;;;;;13.05;33.55;103195.16;1751412;79;20980;-75
2022/03/19 10:45:46;;;;;;;16.15;13.10;;;;;;;13.17;33.35;103201.27;1735266;81;21023;-76
2022/03/19 10:48:19;;;;;;;18.48;13.30;;;;;;;13.40;33.16;103200.34;1711354;83;21047;-75
2022/03/19 10:50:49;;;;;;;16.32;13.25;;;;;;;13.55;32.77;103204.66;1734852;82;21023;-76
2022/03/19 10:53:19;;;;;;;19.77;13.13;;;;;;;13.75;32.56;103199.31;1735141;82;21508;-76
2022/03/19 10:55:47;;;;;;;17.75;12.15;;;;;;;13.87;32.34;103203.18;1734939;82;21024;-75
2022/03/19 10:58:14;;;;;;;18.50;13.30;;;;;;;13.93;32.12;103203.58;1734968;82;21573;-75
2022/03/19 11:00:43;;;;;;;19.55;13.13;;;;;;;14.13;31.92;103192.89;1734814;82;21044;-75
2022/03/19 11:03:20;;;;;;;15.50;12.75;;;;;;;14.29;31.83;103198.03;1735175;82;20995;-75
2022/03/19 11:05:50;;;;;;;19.50;14.23;;;;;;;14.47;31.41;103196.16;1734944;82;21777;-76
2022/03/19 11:08:19;;;;;;;17.45;12.93;;;;;;;14.37;30.73;103196.66;1711958;83;21588;-74
2022/03/19 11:10:49;;;;;;;22.82;14.28;;;;;;;14.22;30.62;103195.48;1734756;82;21027;-75
2022/03/19 11:13:22;;;;;;;17.40;14.03;;;;;;;14.39;30.85;103183.02;1712333;83;21028;-75
2022/03/19 11:15:54;;;;;;;18.62;13.95;;;;;;;14.59;30.56;103176.72;1734741;82;21187;-76
2022/03/19 11:18:23;;;;;;;18.30;13.90;;;;;;;14.65;30.22;103176.20;1735022;82;21088;-76
2022/03/19 11:20:51;;;;;;;17.07;13.75;;;;;;;14.86;30.11;103171.61;1711904;83;21071;-75
2022/03/19 11:23:23;;;;;;;17.45;13.20;;;;;;;15.00;29.96;103166.18;1734528;82;21572;-74
2022/03/19 11:25:57;;;;;;;19.35;14.07;;;;;;;15.11;29.64;103176.17;1711377;83;20988;-76
2022/03/19 11:28:25;;;;;;;19.55;14.45;;;;;;;15.11;29.64;103176.17;1734454;82;21059;-76
2022/03/19 11:31:09;;;;;;;20.48;15.15;;;;;;;15.27;29.43;103173.77;1711826;83;21140;-77
2022/03/19 11:33:39;;;;;;;19.02;14.90;;;;;;;15.28;28.83;103159.66;1734940;82;21011;-77
2022/03/19 11:36:10;;;;;;;19.57;14.68;;;;;;;15.28;28.83;103159.66;1711931;83;21039;-77
2022/03/19 11:38:52;;;;;;;19.02;14.53;;;;;;;15.17;28.54;103161.11;1734455;81;21007;-76